• Join FlightAware (Why Join?)
  • Login
  • US Flag 
02:27AM EDT


 

Airport Tracker/Info


-or-


 

Live Flight TrackerFlight Track Log ✈ DAL6036 ✈ 09-May-2014 ✈ KSYR - KJFK

Flight Track Log - Related Links

Times and Time Zones

All times are in EDT time to prevent confusion due to time zone crossing. See the DAL6036 flight status page for this flight to view local times or setup timezone preferences in your user account.

Time Position Orientation Groundspeed Altitude Reporting Facility
EDT Latitude Longitude Course Direction KTS MPH feet Rate Location/Type
06:16AM 43.1100 -76.0931 152° Southeast 147 169 1,000  Level Boston Center
06:17AM 43.1153 -76.0164 85° East 190 219 3,000 2,040 Climbing Boston Center
06:18AM 43.0869 -75.9442 118° Southeast 210 242 5,500 2,220 Climbing Boston Center
06:19AM 42.7694 -75.7708 154° Southeast  Level Estimated
06:19AM 43.0442 -75.8781 132° Southeast 230 265 7,600  Level Boston Center
06:20AM 42.6838 -75.6875 154° Southeast  Level Estimated
06:20AM 42.9975 -75.8047 131° Southeast 250 288 9,800  Level Boston Center
06:21AM 42.5982 -75.6044 152° Southeast  Level Estimated
06:21AM 42.9425 -75.7217 132° Southeast 284 327 11,100  Level Boston Center
06:22AM 42.8797 -75.6258 132° Southeast 324 373 12,400 1,380 Climbing Boston Center
06:23AM 42.8117 -75.5208 131° Southeast 365 420 13,900 1,620 Climbing Boston Center
06:24AM 42.7267 -75.3922 132° Southeast 383 441 15,800 1,680 Climbing Boston Center
06:25AM 42.6558 -75.2833 131° Southeast 384 442 17,400 1,500 Climbing Boston Center
06:26AM 42.5833 -75.1756 132° Southeast 385 443 18,900 1,440 Climbing Boston Center
06:27AM 42.5106 -75.0653 132° Southeast 390 449 20,400 1,020 Climbing Boston Center
06:28AM 42.4344 -74.9514 132° Southeast 403 464 21,000 240 Climbing Boston Center
06:29AM 42.3531 -74.8283 132° Southeast 433 498 21,000  Level Boston Center
06:30AM 42.2683 -74.7042 133° Southeast 446 513 21,000  Level Boston Center
06:31AM 42.1850 -74.5806 132° Southeast 446 513 21,000  Level Boston Center
06:32AM 42.1022 -74.4575 132° Southeast 446 513 21,000  Level Boston Center
06:33AM 42.0075 -74.3197 133° Southeast 446 513 21,000  Level Boston Center
06:34AM 41.9247 -74.1975 132° Southeast 446 513 21,000 -180 Level Boston Center
06:35AM 41.8275 -74.1069 145° Southeast 439 505 20,700 -360 Descending Boston Center
06:36AM 41.7083 -74.0914 174° South 414 476 20,300 -360 Descending Boston Center
06:37AM 41.5947 -74.0817 176° South 412 474 20,000 -180 Descending Boston Center
06:38AM 41.4786 -74.0717 176° South 414 476 20,000  Level Boston Center
06:39AM 41.3625 -74.0869 186° South 425 489 20,000  Level Boston Center
06:40AM 41.3011 -74.1375 212° Southwest 413 475 20,000 -360 Level New York Center
06:41AM 41.2042 -74.1714 195° South 398 458 19,500 -540 Descending New York Center
06:42AM 41.1147 -74.1667 178° South 363 418 19,000 -360 Descending New York Center
06:42AM 41.0500 -74.2000 201° Southwest 350 403 19,000  Level New York TRACON
06:43AM 40.9500 -74.1667 166° South 368 423 19,000  Level New York TRACON
06:44AM 40.8833 -74.0667 131° Southeast 376 433 19,000 -1,140 Level New York TRACON
06:46AM 40.7667 -73.8333 123° Southeast 350 403 15,600 -1,800 Descending New York TRACON
06:47AM 40.7167 -73.7333 123° Southeast 376 433 13,600 -1,920 Descending New York TRACON
06:48AM 40.6333 -73.7000 163° South 383 441 11,800 -1,800 Descending New York TRACON
06:49AM 40.5500 -73.6667 163° South 306 352 10,200 -1,800 Descending New York TRACON
06:50AM 40.4833 -73.6500 169° South 295 339 8,400 -1,860 Descending New York TRACON
06:51AM 40.4000 -73.6833 197° South 274 315 6,500 -1,800 Descending New York TRACON
06:52AM 40.3833 -73.7667 255° West 230 265 4,600 -1,680 Descending New York TRACON
06:53AM 40.3833 -73.8500 270° West 225 259 3,000 -1,320 Descending New York TRACON
06:54AM 40.4333 -73.8833 333° Northwest 231 266 2,000 -540 Descending New York TRACON
06:55AM 40.5000 -73.8667 11° North 219 252 2,000  Level New York TRACON
06:56AM 40.5333 -73.8333 37° Northeast 183 211 2,000 -420 Level New York TRACON
06:57AM 40.5667 -73.8167 21° North 159 183 1,300 -840 Descending New York TRACON
06:58AM 40.6167 -73.7833 27° Northeast 147 169 500 -840 Descending New York TRACON